Time;durP1;ratioP1;P1;durP2;ratioP2;P2;SDS_P1;SDS_P2;PMS_P1;PMS_P2;Temp;Humidity;BMP_temperature;BMP_pressure;BME280_temperature;BME280_humidity;BME280_pressure;Samples;Min_cycle;Max_cycle;Signal;HPM_P1;HPM_P2
2021/12/25 00:02:15;;;;;;;1.43;1.03;;;-4.90;72.10;;;;;;4975410;28;20583;-52
2021/12/25 00:04:41;;;;;;;1.67;1.00;;;-4.90;78.30;;;;;;4975257;28;21175;-52
2021/12/25 00:07:08;;;;;;;0.70;0.70;;;-5.00;63.60;;;;;;4970066;28;22179;-52
2021/12/25 00:09:35;;;;;;;0.93;0.80;;;-5.00;45.30;;;;;;4969243;28;20552;-57
2021/12/25 00:12:01;;;;;;;1.57;1.40;;;-5.10;40.80;;;;;;4971081;28;20584;-55
2021/12/25 00:14:29;;;;;;;1.17;1.00;;;-5.10;26.60;;;;;;4967454;28;20552;-55
2021/12/25 00:16:58;;;;;;;2.00;1.20;;;-5.20;35.60;;;;;;4969935;28;20571;-56
2021/12/25 00:19:24;;;;;;;1.00;0.90;;;-5.20;34.30;;;;;;4967342;28;20572;-55
2021/12/25 00:21:51;;;;;;;1.90;1.80;;;-5.20;21.20;;;;;;4969961;28;21050;-56
2021/12/25 00:24:18;;;;;;;1.47;1.37;;;-5.20;36.40;;;;;;4968352;28;20548;-57
2021/12/25 00:26:53;;;;;;;1.43;1.33;;;-5.10;36.40;;;;;;4966681;28;20974;-56
2021/12/25 00:32:15;;;;;;;3.13;1.93;;;-5.20;51.80;;;;;;4965347;28;20848;-56
2021/12/25 00:34:42;;;;;;;2.53;2.10;;;-5.20;48.30;;;;;;4968495;28;20467;-56
2021/12/25 00:37:09;;;;;;;1.80;1.70;;;-5.30;44.00;;;;;;4968751;28;20549;-56
2021/12/25 00:39:37;;;;;;;2.47;2.27;;;-5.30;40.00;;;;;;4968092;28;20655;-56
2021/12/25 00:42:05;;;;;;;1.93;1.83;;;-5.30;28.50;;;;;;4966755;28;20486;-54
2021/12/25 00:44:33;;;;;;;2.83;2.50;;;-5.40;33.70;;;;;;4968112;28;20544;-55
2021/12/25 00:46:59;;;;;;;2.67;2.47;;;-5.40;31.70;;;;;;4967783;28;21012;-55
2021/12/25 00:49:28;;;;;;;4.70;2.70;;;-5.50;88.10;;;;;;4968877;28;20552;-56
2021/12/25 00:51:55;;;;;;;4.37;2.80;;;-5.50;89.50;;;;;;4969378;28;20465;-55
2021/12/25 00:54:22;;;;;;;3.57;2.80;;;-5.50;23.60;;;;;;4968635;28;20489;-55
2021/12/25 00:56:49;;;;;;;4.07;3.67;;;-5.50;27.60;;;;;;4966587;28;20984;-54
2021/12/25 00:59:16;;;;;;;4.83;3.67;;;-5.60;93.10;;;;;;4969173;28;20565;-56
2021/12/25 01:01:42;;;;;;;4.30;4.00;;;-5.60;99.90;;;;;;4966541;28;20552;-55
2021/12/25 01:04:09;;;;;;;6.43;5.80;;;-5.60;99.90;;;;;;4967513;28;20897;-54
2021/12/25 01:06:37;;;;;;;3.93;3.53;;;-5.70;82.10;;;;;;4967337;28;20541;-55
2021/12/25 01:09:04;;;;;;;3.10;2.90;;;-5.70;72.90;;;;;;4965279;28;20468;-55
2021/12/25 01:11:32;;;;;;;2.07;1.93;;;-5.70;85.70;;;;;;4971179;28;20588;-55
2021/12/25 01:14:05;;;;;;;3.13;2.83;;;-5.70;99.90;;;;;;4967252;28;20481;-54
2021/12/25 01:17:00;;;;;;;4.13;2.50;;;-5.70;99.90;;;;;;4968304;28;20974;-56
2021/12/25 01:19:41;;;;;;;2.57;2.37;;;-5.70;99.90;;;;;;4967039;28;20564;-55
2021/12/25 01:22:34;;;;;;;3.50;2.60;;;-5.70;99.90;;;;;;4970560;28;20560;-56
2021/12/25 01:30:42;;;;;;;3.17;2.80;;;-5.80;99.90;;;;;;4968664;28;21241;-56
2021/12/25 01:33:30;;;;;;;4.90;3.10;;;-5.80;99.90;;;;;;4965682;28;20477;-57
2021/12/25 01:36:34;;;;;;;2.50;2.33;;;-5.80;99.90;;;;;;4966993;28;20464;-56
2021/12/25 01:39:09;;;;;;;5.37;3.57;;;-5.80;99.90;;;;;;4965660;28;20492;-56
2021/12/25 01:49:52;;;;;;;4.10;3.10;;;-6.00;99.90;;;;;;4967889;28;20923;-55
2021/12/25 01:52:19;;;;;;;3.63;3.30;;;-6.00;99.90;;;;;;4962007;28;20914;-57
2021/12/25 01:54:47;;;;;;;3.47;2.80;;;-6.00;99.90;;;;;;4965498;28;20505;-56
2021/12/25 01:57:13;;;;;;;3.17;2.87;;;-6.10;99.90;;;;;;4966509;28;21061;-56
2021/12/25 01:59:40;;;;;;;2.90;2.70;;;-6.10;99.90;;;;;;4968027;28;21015;-56
2021/12/25 02:02:06;;;;;;;3.37;3.07;;;-6.20;99.90;;;;;;4968344;28;20544;-56
2021/12/25 02:04:33;;;;;;;3.17;2.90;;;-6.20;99.90;;;;;;4965195;28;20583;-56
2021/12/25 02:07:00;;;;;;;3.60;3.30;;;-6.20;99.90;;;;;;4967199;28;20462;-56
2021/12/25 02:09:28;;;;;;;4.30;3.67;;;-6.20;99.90;;;;;;4966914;28;20473;-56
2021/12/25 02:11:55;;;;;;;2.77;2.57;;;-6.20;99.90;;;;;;4966636;28;20461;-48
2021/12/25 02:14:22;;;;;;;3.40;3.10;;;-6.20;99.90;;;;;;4967013;28;20512;-48
2021/12/25 02:16:55;;;;;;;3.20;2.90;;;-6.30;99.90;;;;;;4967582;28;20497;-49
2021/12/25 02:19:33;;;;;;;3.60;2.90;;;-6.20;99.90;;;;;;4963673;28;20481;-47
2021/12/25 02:22:02;;;;;;;4.40;3.00;;;-6.20;99.90;;;;;;4967667;28;20485;-47
2021/12/25 02:24:29;;;;;;;3.43;3.13;;;-6.20;99.90;;;;;;4965804;28;20551;-51
2021/12/25 02:26:57;;;;;;;3.57;3.37;;;-6.30;99.90;;;;;;4967250;28;21045;-48
2021/12/25 02:29:24;;;;;;;3.77;2.80;;;-6.20;99.90;;;;;;4966873;28;20552;-49
2021/12/25 02:31:50;;;;;;;3.83;3.50;;;-6.30;99.90;;;;;;4963697;28;21042;-48
2021/12/25 02:34:17;;;;;;;3.50;3.20;;;-6.30;99.90;;;;;;4963115;28;20516;-47
2021/12/25 02:36:43;;;;;;;3.10;2.70;;;-6.30;99.90;;;;;;4965999;28;20497;-47
2021/12/25 02:39:11;;;;;;;4.00;3.67;;;-6.30;99.90;;;;;;4964438;28;20513;-48
2021/12/25 02:41:38;;;;;;;3.17;2.70;;;-6.30;99.90;;;;;;4966821;28;22783;-48
2021/12/25 02:44:05;;;;;;;2.93;2.80;;;-6.40;99.90;;;;;;4966650;28;20490;-48
2021/12/25 02:46:32;;;;;;;2.60;2.40;;;-6.40;99.90;;;;;;4962794;28;20569;-47
2021/12/25 02:48:59;;;;;;;3.17;2.97;;;-6.50;99.90;;;;;;4966446;28;20483;-48
2021/12/25 02:51:26;;;;;;;3.27;2.97;;;-6.50;99.90;;;;;;4966164;28;20464;-48
2021/12/25 02:53:53;;;;;;;3.17;2.97;;;-6.50;99.90;;;;;;4964250;28;20521;-48
2021/12/25 02:56:22;;;;;;;3.60;2.67;;;-6.60;24.70;;;;;;4964416;28;20489;-47
2021/12/25 02:58:49;;;;;;;3.53;3.23;;;-6.50;99.90;;;;;;4965584;28;20485;-47
2021/12/25 03:01:18;;;;;;;3.33;3.03;;;-6.50;99.90;;;;;;4967658;28;20620;-48
2021/12/25 03:03:45;;;;;;;2.93;2.73;;;-6.60;99.90;;;;;;4966660;28;20604;-48
2021/12/25 03:06:12;;;;;;;4.47;3.00;;;-6.60;23.80;;;;;;4965777;28;20473;-48
2021/12/25 03:08:42;;;;;;;3.43;2.97;;;-6.70;81.90;;;;;;4963554;28;20559;-48
2021/12/25 03:11:13;;;;;;;6.17;3.17;;;-6.70;99.90;;;;;;4965040;28;21100;-49
2021/12/25 03:13:45;;;;;;;4.47;3.03;;;-6.70;78.50;;;;;;4964661;28;20572;-47
2021/12/25 03:16:14;;;;;;;6.83;3.53;;;-6.70;99.90;;;;;;4965099;28;20461;-47
2021/12/25 03:18:47;;;;;;;3.70;3.00;;;-6.70;99.90;;;;;;4968017;28;20482;-47
2021/12/25 03:21:17;;;;;;;3.13;2.60;;;-6.70;99.90;;;;;;4967587;28;20489;-47
2021/12/25 03:23:45;;;;;;;3.10;2.80;;;-6.70;99.90;;;;;;4967720;28;20489;-47
2021/12/25 03:26:12;;;;;;;2.87;2.60;;;-6.60;99.90;;;;;;4963225;28;21013;-48
2021/12/25 03:28:43;;;;;;;2.90;2.80;;;-6.60;99.90;;;;;;4967857;28;20938;-49
2021/12/25 03:31:16;;;;;;;3.13;2.90;;;-6.60;99.90;;;;;;4968419;28;20464;-47
2021/12/25 03:33:44;;;;;;;2.77;2.57;;;-6.70;32.30;;;;;;4965761;28;20481;-49
2021/12/25 03:36:10;;;;;;;3.33;2.30;;;-6.80;34.80;;;;;;4964984;28;20469;-48
2021/12/25 03:38:37;;;;;;;2.80;2.60;;;-6.80;33.40;;;;;;4963589;28;20477;-48
2021/12/25 03:41:06;;;;;;;6.80;3.73;;;-6.70;92.70;;;;;;4965469;28;20521;-49
2021/12/25 03:43:33;;;;;;;3.73;2.93;;;-6.80;99.90;;;;;;4965152;28;20636;-48
2021/12/25 03:46:02;;;;;;;2.17;2.10;;;-6.70;87.60;;;;;;4969915;28;20465;-49
2021/12/25 03:48:45;;;;;;;3.00;2.80;;;-6.80;30.60;;;;;;4966491;28;20523;-47
2021/12/25 03:59:26;;;;;;;5.50;3.70;;;-6.90;99.90;;;;;;4967717;28;20443;-48
2021/12/25 04:01:59;;;;;;;3.13;2.83;;;-6.90;99.90;;;;;;4971700;28;20472;-48
2021/12/25 04:04:33;;;;;;;3.53;3.27;;;-6.80;99.90;;;;;;4980281;28;21922;-48
2021/12/25 04:07:01;;;;;;;12.53;4.40;;;-6.90;34.30;;;;;;4968818;28;20552;-48
2021/12/25 04:09:29;;;;;;;3.03;2.83;;;-7.00;50.10;;;;;;4969556;28;20559;-49
2021/12/25 04:11:59;;;;;;;3.83;2.77;;;-7.10;47.00;;;;;;4968252;28;20473;-48
2021/12/25 04:14:26;;;;;;;3.90;3.00;;;-7.10;37.40;;;;;;4969157;28;20504;-48
2021/12/25 04:16:54;;;;;;;2.87;2.67;;;-7.10;44.90;;;;;;4967312;28;20489;-47
2021/12/25 04:19:21;;;;;;;4.63;2.60;;;-7.00;99.90;;;;;;4970449;28;20524;-46
2021/12/25 04:21:53;;;;;;;2.67;2.47;;;-7.00;99.90;;;;;;4967940;28;22260;-49
2021/12/25 04:24:21;;;;;;;3.60;3.30;;;-7.00;99.90;;;;;;4968502;28;20461;-48
2021/12/25 04:26:49;;;;;;;2.50;2.33;;;-7.00;99.90;;;;;;4969456;28;20837;-47
2021/12/25 04:29:32;;;;;;;2.60;2.40;;;-7.10;25.90;;;;;;4967777;28;20556;-48
2021/12/25 04:47:47;;;;;;;2.37;2.20;;;-7.10;84.10;;;;;;4968521;28;20460;-47
2021/12/25 04:49:22;;;;;;;2.50;2.40;;;-7.00;99.90;;;;;;4968183;28;20536;-47
2021/12/25 05:02:54;;;;;;;5.00;2.80;;;-7.20;20.30;;;;;;4967067;28;20553;-47
2021/12/25 05:05:23;;;;;;;2.77;2.60;;;-7.20;91.60;;;;;;4965691;28;20461;-52
2021/12/25 05:07:49;;;;;;;2.43;2.20;;;-7.20;73.30;;;;;;4966565;28;22147;-52
2021/12/25 05:10:16;;;;;;;2.50;2.40;;;-7.20;99.90;;;;;;4965345;28;22538;-52
2021/12/25 05:12:43;;;;;;;2.80;2.50;;;-7.30;92.60;;;;;;4966832;28;20520;-51
2021/12/25 05:15:10;;;;;;;2.83;2.63;;;-7.30;21.90;;;;;;4969231;28;21001;-52
2021/12/25 05:17:36;;;;;;;2.50;2.30;;;-7.40;45.20;;;;;;4967101;28;20543;-51
2021/12/25 05:20:04;;;;;;;3.27;2.90;;;-7.40;54.10;;;;;;4969095;28;20517;-51
2021/12/25 05:22:31;;;;;;;3.30;3.00;;;-7.40;54.00;;;;;;4966881;28;20481;-52
2021/12/25 05:24:58;;;;;;;3.20;2.90;;;-7.50;69.00;;;;;;4967000;28;20458;-52
2021/12/25 05:27:25;;;;;;;4.93;3.40;;;-7.50;58.90;;;;;;4967684;28;20490;-52
2021/12/25 05:29:51;;;;;;;3.03;2.83;;;-7.40;49.90;;;;;;4969387;28;20485;-50
2021/12/25 05:32:19;;;;;;;3.10;2.90;;;-7.40;52.20;;;;;;4967259;28;20513;-51
2021/12/25 05:34:46;;;;;;;3.77;3.20;;;-7.40;60.60;;;;;;4967388;28;20469;-52
2021/12/25 05:37:13;;;;;;;3.30;2.80;;;-7.40;69.40;;;;;;4968712;28;20493;-51
2021/12/25 05:39:42;;;;;;;3.30;3.00;;;-7.50;64.10;;;;;;4968011;28;20467;-51
2021/12/25 05:42:09;;;;;;;2.90;2.70;;;-7.40;57.00;;;;;;4967771;28;20508;-51
2021/12/25 05:44:36;;;;;;;3.00;2.80;;;-7.50;65.10;;;;;;4967443;28;20519;-52
2021/12/25 05:47:03;;;;;;;2.30;2.20;;;-7.50;66.90;;;;;;4967730;28;20564;-51
2021/12/25 05:49:29;;;;;;;2.50;2.37;;;-7.50;69.50;;;;;;4967132;28;20496;-48
2021/12/25 05:51:56;;;;;;;4.93;2.40;;;-7.50;72.90;;;;;;4967663;28;20501;-47
2021/12/25 05:54:22;;;;;;;2.90;2.70;;;-7.40;27.80;;;;;;4969539;28;20498;-47
2021/12/25 05:56:50;;;;;;;3.30;3.00;;;-7.40;45.40;;;;;;4966911;28;20500;-48
2021/12/25 05:59:17;;;;;;;3.40;2.70;;;-7.50;59.90;;;;;;4967796;28;20973;-47
2021/12/25 06:01:44;;;;;;;3.03;2.83;;;-7.50;50.00;;;;;;4965906;28;20580;-48
2021/12/25 06:04:10;;;;;;;2.90;2.80;;;-7.50;59.90;;;;;;4967089;28;20508;-47
2021/12/25 06:06:37;;;;;;;2.83;2.63;;;-7.60;57.90;;;;;;4967883;28;20509;-47
2021/12/25 06:09:07;;;;;;;2.93;2.73;;;-7.60;56.80;;;;;;4967788;28;21050;-47
2021/12/25 06:11:34;;;;;;;5.63;3.00;;;-7.60;65.20;;;;;;4967005;28;20467;-49
2021/12/25 06:14:09;;;;;;;3.37;2.80;;;-7.60;78.70;;;;;;4967870;28;20573;-47
2021/12/25 06:16:36;;;;;;;3.20;2.90;;;-7.60;61.50;;;;;;4966790;28;20457;-48
2021/12/25 06:19:03;;;;;;;2.40;2.20;;;-7.50;40.60;;;;;;4966051;28;20496;-48
2021/12/25 06:21:30;;;;;;;4.30;2.77;;;-7.50;38.70;;;;;;4966808;28;20509;-48
2021/12/25 06:23:57;;;;;;;3.73;3.00;;;-7.50;35.00;;;;;;4966338;28;20552;-48
2021/12/25 06:26:23;;;;;;;2.77;2.50;;;-7.60;52.60;;;;;;4964506;28;20492;-48
2021/12/25 06:28:50;;;;;;;3.27;2.93;;;-7.60;64.30;;;;;;4969065;28;20575;-48
2021/12/25 06:31:18;;;;;;;3.30;2.80;;;-7.60;75.50;;;;;;4965745;28;20453;-48
2021/12/25 06:33:44;;;;;;;3.27;2.40;;;-7.60;78.90;;;;;;4967418;28;20536;-48
2021/12/25 06:36:11;;;;;;;2.80;2.63;;;-7.60;69.10;;;;;;4968401;28;20489;-47
2021/12/25 06:38:39;;;;;;;5.50;2.93;;;-7.70;79.80;;;;;;4968554;28;20525;-47
2021/12/25 06:41:07;;;;;;;2.60;2.40;;;-7.70;84.10;;;;;;4966144;28;20485;-46
2021/12/25 06:43:34;;;;;;;4.33;2.83;;;-7.70;84.90;;;;;;4967100;28;20489;-48
2021/12/25 06:46:01;;;;;;;3.00;2.70;;;-7.70;99.50;;;;;;4965598;28;20904;-48
2021/12/25 06:48:29;;;;;;;4.53;2.93;;;-7.70;99.90;;;;;;4967625;28;20516;-48
2021/12/25 06:50:55;;;;;;;8.33;5.63;;;-7.80;85.90;;;;;;4966892;28;20481;-48
2021/12/25 06:53:22;;;;;;;28.07;16.30;;;-7.70;77.40;;;;;;4966687;28;20585;-49
2021/12/25 06:55:49;;;;;;;25.77;16.17;;;-7.70;34.10;;;;;;4967492;28;20501;-48
2021/12/25 06:58:15;;;;;;;40.90;22.50;;;-7.80;70.90;;;;;;4966103;28;20500;-47
2021/12/25 07:00:42;;;;;;;27.30;17.07;;;-7.80;74.30;;;;;;4965777;28;20583;-48
2021/12/25 07:03:09;;;;;;;20.23;12.77;;;-7.80;71.40;;;;;;4967848;28;21076;-47
2021/12/25 07:05:37;;;;;;;14.97;10.27;;;-7.80;76.80;;;;;;4967309;28;20465;-47
2021/12/25 07:08:04;;;;;;;14.67;8.87;;;-7.80;66.40;;;;;;4965744;28;20497;-47
2021/12/25 07:10:30;;;;;;;10.73;8.23;;;-7.70;78.30;;;;;;4966770;28;20493;-47
2021/12/25 07:12:57;;;;;;;13.10;8.77;;;-7.80;91.70;;;;;;4966186;28;21091;-47
2021/12/25 07:15:23;;;;;;;20.90;13.57;;;-7.80;94.60;;;;;;4966147;28;20497;-47
2021/12/25 07:17:50;;;;;;;24.97;15.20;;;-7.70;36.20;;;;;;4970598;28;20910;-48
2021/12/25 07:20:17;;;;;;;28.93;18.10;;;-7.70;62.30;;;;;;4970599;28;20489;-47
2021/12/25 07:22:46;;;;;;;25.10;15.87;;;-7.70;57.60;;;;;;4968762;28;20580;-47
2021/12/25 07:25:12;;;;;;;14.27;11.10;;;-7.70;74.20;;;;;;4968952;28;20543;-49
2021/12/25 07:27:39;;;;;;;15.80;11.17;;;-7.70;67.00;;;;;;4971013;28;20615;-48
2021/12/25 07:30:07;;;;;;;13.33;9.83;;;-7.60;45.20;;;;;;4967426;28;20552;-48
2021/12/25 07:32:34;;;;;;;10.77;8.10;;;-7.60;52.70;;;;;;4966702;28;20851;-47
2021/12/25 07:35:01;;;;;;;11.23;9.00;;;-7.70;55.00;;;;;;4968318;28;20465;-47
2021/12/25 07:37:27;;;;;;;9.70;8.20;;;-7.60;48.00;;;;;;4967537;28;20497;-47
2021/12/25 07:39:56;;;;;;;7.97;7.17;;;-7.50;40.00;;;;;;4968917;28;20485;-47
2021/12/25 07:42:22;;;;;;;7.03;5.33;;;-7.40;64.70;;;;;;4969303;28;20485;-48
2021/12/25 07:44:53;;;;;;;4.50;4.20;;;-7.30;48.80;;;;;;4968259;28;20869;-48
2021/12/25 07:47:21;;;;;;;6.90;5.83;;;-7.40;56.80;;;;;;4969362;28;20472;-47
2021/12/25 07:49:48;;;;;;;11.90;9.80;;;-7.40;86.20;;;;;;4969480;28;20492;-46
2021/12/25 07:52:15;;;;;;;10.93;9.60;;;-7.40;97.30;;;;;;4971676;28;20536;-46
2021/12/25 07:54:42;;;;;;;12.27;11.00;;;-7.40;99.90;;;;;;4970614;28;20465;-49
2021/12/25 07:57:10;;;;;;;13.10;11.80;;;-7.40;98.40;;;;;;4969096;28;20496;-50
2021/12/25 07:59:36;;;;;;;16.07;12.23;;;-7.40;95.10;;;;;;4968818;28;20500;-51
2021/12/25 08:02:04;;;;;;;14.97;12.70;;;-7.30;99.60;;;;;;4971914;28;20520;-57
2021/12/25 08:04:30;;;;;;;16.53;13.03;;;-7.40;99.90;;;;;;4972608;28;20457;-50
2021/12/25 08:06:57;;;;;;;15.17;13.67;;;-7.30;94.80;;;;;;4968451;28;20711;-57
2021/12/25 08:09:28;;;;;;;16.10;12.93;;;-7.30;99.90;;;;;;4965429;28;20501;-50
2021/12/25 08:11:56;;;;;;;13.13;11.73;;;-7.30;88.50;;;;;;4967630;28;20532;-51
2021/12/25 08:14:25;;;;;;;13.23;11.83;;;-7.20;82.80;;;;;;4967590;28;20608;-50
2021/12/25 08:16:53;;;;;;;14.13;10.80;;;-7.20;90.90;;;;;;4966147;28;20481;-50
2021/12/25 08:19:20;;;;;;;8.83;8.00;;;-7.20;84.70;;;;;;4966077;28;20457;-50
2021/12/25 08:21:47;;;;;;;7.00;6.30;;;-7.10;83.20;;;;;;4970676;28;20564;-51
2021/12/25 08:24:13;;;;;;;6.60;6.00;;;-7.00;86.60;;;;;;4967698;28;20546;-52
2021/12/25 08:26:40;;;;;;;5.70;5.20;;;-6.80;89.80;;;;;;4967133;28;20552;-51
2021/12/25 08:29:07;;;;;;;7.60;6.80;;;-6.60;99.90;;;;;;4966271;28;20497;-50
2021/12/25 08:31:35;;;;;;;16.97;14.27;;;-6.40;99.90;;;;;;4966124;28;20504;-51
2021/12/25 08:34:02;;;;;;;19.03;16.50;;;-6.40;97.80;;;;;;4975657;28;20513;-51
2021/12/25 08:36:29;;;;;;;19.40;17.20;;;-6.30;98.90;;;;;;4967945;28;20552;-50
2021/12/25 08:38:55;;;;;;;19.70;11.90;;;-6.30;95.90;;;;;;4967708;28;20497;-50
2021/12/25 08:41:26;;;;;;;11.87;10.60;;;-6.30;90.80;;;;;;4969129;28;20489;-50
2021/12/25 08:43:57;;;;;;;14.80;12.23;;;-6.10;95.40;;;;;;4971578;28;20516;-50
2021/12/25 08:46:42;;;;;;;13.67;11.70;;;-5.80;99.90;;;;;;4968668;28;20461;-51
2021/12/25 08:49:14;;;;;;;13.00;11.60;;;-5.80;99.90;;;;;;4967920;28;20512;-50
2021/12/25 08:51:41;;;;;;;12.40;11.07;;;-5.70;99.90;;;;;;4964267;28;20466;-51
2021/12/25 08:54:07;;;;;;;13.57;11.80;;;-5.70;99.90;;;;;;4967594;28;20889;-51
2021/12/25 08:56:34;;;;;;;11.73;10.53;;;-5.50;99.90;;;;;;4961282;28;21975;-51
2021/12/25 08:59:01;;;;;;;12.23;10.13;;;-5.50;91.50;;;;;;4968306;28;22326;-52
2021/12/25 09:01:27;;;;;;;9.57;8.43;;;-5.30;96.20;;;;;;4965983;28;20564;-51
2021/12/25 09:03:55;;;;;;;26.17;17.53;;;-5.20;99.90;;;;;;4965824;28;20985;-51
2021/12/25 09:06:23;;;;;;;9.57;7.40;;;-5.20;99.90;;;;;;4970046;28;20457;-51
2021/12/25 09:08:50;;;;;;;7.13;6.27;;;-5.00;99.90;;;;;;4965862;28;20497;-52
2021/12/25 09:11:18;;;;;;;6.87;5.70;;;-4.80;99.90;;;;;;4966589;28;20512;-52
2021/12/25 09:13:44;;;;;;;5.20;4.70;;;-4.60;99.90;;;;;;4966939;28;20567;-51
2021/12/25 09:16:11;;;;;;;5.93;4.33;;;-4.80;1.40;;;;;;4965919;28;21862;-51
2021/12/25 09:18:38;;;;;;;9.73;5.27;;;-4.80;99.90;;;;;;4962704;28;20536;-51
2021/12/25 09:21:04;;;;;;;6.27;5.23;;;-4.30;99.90;;;;;;4961517;28;20493;-50
2021/12/25 09:23:32;;;;;;;7.23;5.83;;;-4.00;99.90;;;;;;4964071;28;21100;-51
2021/12/25 09:25:59;;;;;;;8.80;6.30;;;-4.20;99.90;;;;;;4967134;28;20466;-51
2021/12/25 09:28:25;;;;;;;8.27;7.10;;;-4.30;99.90;;;;;;4965322;28;20497;-51
2021/12/25 09:30:52;;;;;;;9.80;8.10;;;-4.30;99.90;;;;;;4962725;28;20545;-50
2021/12/25 09:33:19;;;;;;;8.67;6.63;;;-4.30;99.90;;;;;;4963939;28;20671;-51
2021/12/25 09:35:46;;;;;;;7.53;6.17;;;-4.40;99.90;;;;;;4965734;28;20551;-52
2021/12/25 09:38:13;;;;;;;11.63;7.43;;;-4.30;99.90;;;;;;4963933;28;20564;-52
2021/12/25 09:40:40;;;;;;;10.37;7.70;;;-4.30;99.90;;;;;;4966868;28;20489;-51
2021/12/25 09:43:07;;;;;;;7.73;6.93;;;-4.30;99.90;;;;;;4961656;28;20539;-51
2021/12/25 09:45:34;;;;;;;11.33;7.80;;;-4.00;99.90;;;;;;4966956;28;20465;-51
2021/12/25 09:48:01;;;;;;;7.50;6.50;;;-3.00;99.90;;;;;;4963322;28;20493;-51
2021/12/25 09:50:27;;;;;;;6.80;6.07;;;-2.80;99.90;;;;;;4966645;28;20461;-46
2021/12/25 09:52:54;;;;;;;7.50;5.70;;;-2.60;99.90;;;;;;4966668;28;21061;-45
2021/12/25 09:55:21;;;;;;;7.13;5.80;;;-2.40;99.90;;;;;;4965177;28;20461;-45
2021/12/25 09:57:49;;;;;;;12.00;9.10;;;-1.50;79.70;;;;;;4966387;28;20497;-48
2021/12/25 10:00:20;;;;;;;6.67;5.50;;;-0.20;98.80;;;;;;4966804;28;20505;-45
2021/12/25 10:02:50;;;;;;;7.47;5.13;;;1.50;99.90;;;;;;4966590;28;20576;-47
2021/12/25 10:05:25;;;;;;;6.03;5.53;;;1.30;99.90;;;;;;4967434;28;20549;-47
2021/12/25 10:08:06;;;;;;;8.83;5.10;;;1.20;99.90;;;;;;4967186;28;20500;-46
2021/12/25 10:10:39;;;;;;;6.53;5.10;;;1.60;99.90;;;;;;4965274;28;20457;-47
2021/12/25 10:13:21;;;;;;;6.10;5.60;;;1.30;1.40;;;;;;4966685;28;20536;-47
2021/12/25 10:15:48;;;;;;;8.43;6.60;;;0.70;99.90;;;;;;4966613;28;20465;-47
2021/12/25 10:18:15;;;;;;;7.47;6.40;;;-0.30;99.90;;;;;;4963343;28;20991;-46
2021/12/25 10:20:41;;;;;;;5.97;5.47;;;-1.20;80.50;;;;;;4968160;28;20500;-46
2021/12/25 10:23:12;;;;;;;11.57;7.90;;;-1.60;32.60;;;;;;4963838;28;20489;-47
2021/12/25 10:25:45;;;;;;;7.90;6.70;;;-0.50;69.00;;;;;;4966842;28;20466;-51
2021/12/25 10:28:14;;;;;;;9.50;7.23;;;0.00;99.90;;;;;;4964062;28;20470;-51
2021/12/25 10:30:49;;;;;;;11.57;6.97;;;-0.50;79.90;;;;;;4966560;28;21035;-47
2021/12/25 10:33:32;;;;;;;6.53;5.50;;;-1.20;36.40;;;;;;4966919;28;20903;-47
2021/12/25 10:36:01;;;;;;;3.80;3.50;;;-1.40;74.80;;;;;;4963175;28;20465;-47
2021/12/25 10:38:29;;;;;;;5.53;4.73;;;-0.40;72.50;;;;;;4963140;28;20552;-46
2021/12/25 10:41:18;;;;;;;5.00;4.60;;;-1.50;43.50;;;;;;4968026;28;20462;-46
2021/12/25 10:43:47;;;;;;;7.87;5.27;;;-1.60;28.30;;;;;;4964163;28;20564;-46
2021/12/25 10:46:14;;;;;;;10.63;6.67;;;-0.80;20.60;;;;;;4963410;28;20963;-47
2021/12/25 10:48:41;;;;;;;4.27;3.80;;;0.20;47.80;;;;;;4965556;28;20544;-47
2021/12/25 10:51:23;;;;;;;3.50;3.10;;;0.70;99.90;;;;;;4966910;28;20871;-45
2021/12/25 10:53:53;;;;;;;4.13;3.83;;;0.10;90.90;;;;;;4967750;28;20575;-46
2021/12/25 10:56:20;;;;;;;4.77;4.20;;;-0.40;71.40;;;;;;4968425;28;21029;-45
2021/12/25 10:58:48;;;;;;;7.40;6.70;;;-0.10;79.50;;;;;;4966638;28;20840;-47
2021/12/25 11:01:17;;;;;;;4.20;3.83;;;0.70;92.40;;;;;;4967669;28;20525;-47
2021/12/25 11:03:45;;;;;;;4.40;4.00;;;0.60;99.90;;;;;;4964094;28;20500;-47
2021/12/25 11:06:16;;;;;;;9.73;6.57;;;-0.40;81.60;;;;;;4964974;28;20497;-50
2021/12/25 11:08:45;;;;;;;5.10;4.70;;;-0.80;39.50;;;;;;4963218;28;20472;-51
2021/12/25 11:11:13;;;;;;;3.63;3.43;;;-0.40;46.40;;;;;;4961748;28;20466;-50
2021/12/25 11:13:43;;;;;;;4.13;3.83;;;-0.40;47.60;;;;;;4963483;28;20568;-51
2021/12/25 11:16:27;;;;;;;5.03;3.93;;;0.10;99.90;;;;;;4965040;28;20825;-52
2021/12/25 11:19:04;;;;;;;6.33;4.20;;;-0.70;61.30;;;;;;4965979;28;20544;-51
2021/12/25 11:21:33;;;;;;;4.90;4.40;;;0.30;64.90;;;;;;4966456;28;20520;-51
2021/12/25 11:24:09;;;;;;;5.73;4.93;;;-0.10;90.60;;;;;;4963743;28;20661;-51
2021/12/25 11:26:37;;;;;;;5.07;4.60;;;-0.60;60.50;;;;;;4963239;28;20458;-51
2021/12/25 11:29:05;;;;;;;6.23;4.43;;;-0.70;32.10;;;;;;4960871;28;20490;-52
2021/12/25 11:31:33;;;;;;;4.83;3.50;;;-0.90;57.00;;;;;;4967085;28;22420;-52
2021/12/25 11:34:00;;;;;;;6.00;4.70;;;-0.90;77.60;;;;;;4964646;28;21003;-51
2021/12/25 11:36:27;;;;;;;4.20;2.70;;;-1.00;48.90;;;;;;4962621;28;20560;-51
2021/12/25 11:38:54;;;;;;;5.27;4.00;;;-0.40;82.70;;;;;;4962930;28;20909;-51
2021/12/25 11:41:26;;;;;;;5.20;3.30;;;-0.70;55.00;;;;;;4964329;28;20991;-50
2021/12/25 11:43:54;;;;;;;7.80;4.10;;;-1.10;70.80;;;;;;4964669;28;20616;-51
2021/12/25 11:46:23;;;;;;;5.10;3.30;;;-1.00;60.40;;;;;;4965155;28;20581;-51
2021/12/25 11:49:06;;;;;;;5.10;2.83;;;-1.00;72.80;;;;;;4965907;28;20493;-51
2021/12/25 11:51:33;;;;;;;3.43;3.13;;;-1.00;62.80;;;;;;4965293;28;20971;-51
2021/12/25 11:54:15;;;;;;;2.63;2.43;;;-0.90;72.70;;;;;;4960397;28;20653;-51
2021/12/25 11:57:09;;;;;;;2.70;2.60;;;-0.80;83.00;;;;;;4968735;28;20461;-52
2021/12/25 11:59:45;;;;;;;7.87;3.50;;;-1.00;91.50;;;;;;4968295;28;20472;-51
2021/12/25 12:02:12;;;;;;;3.50;3.20;;;-0.80;42.40;;;;;;4966563;28;20493;-52
2021/12/25 12:04:40;;;;;;;3.20;2.90;;;-0.60;71.40;;;;;;4962723;28;20467;-51
2021/12/25 12:07:12;;;;;;;3.77;3.13;;;-0.50;67.70;;;;;;4965575;28;20532;-51
2021/12/25 12:09:53;;;;;;;5.57;3.47;;;-0.60;43.40;;;;;;4966661;28;20470;-51
2021/12/25 12:12:23;;;;;;;3.50;2.67;;;0.30;85.20;;;;;;4963686;28;20481;-51
2021/12/25 12:15:14;;;;;;;2.67;2.47;;;1.50;99.90;;;;;;4968860;28;20469;-51
2021/12/25 12:17:42;;;;;;;2.10;2.00;;;1.70;99.90;;;;;;4966505;28;20465;-51
2021/12/25 12:20:17;;;;;;;3.77;2.60;;;2.40;99.90;;;;;;4965672;28;20471;-51
2021/12/25 12:23:17;;;;;;;4.10;2.20;;;2.30;99.90;;;;;;4959572;28;20488;-50
2021/12/25 12:26:01;;;;;;;2.63;2.30;;;2.50;99.90;;;;;;4967014;28;20468;-51
2021/12/25 12:28:44;;;;;;;6.20;2.20;;;2.30;99.90;;;;;;4963899;28;20469;-52
2021/12/25 12:31:38;;;;;;;3.90;2.70;;;2.30;99.90;;;;;;4968539;28;21010;-51
2021/12/25 12:34:32;;;;;;;1.80;1.70;;;1.80;99.90;;;;;;4968883;28;20468;-50
2021/12/25 12:37:31;;;;;;;2.57;2.37;;;2.10;99.90;;;;;;4969505;28;20457;-51
2021/12/25 12:40:23;;;;;;;2.50;2.30;;;1.80;99.90;;;;;;4972105;28;20466;-51
2021/12/25 12:42:53;;;;;;;3.07;2.20;;;1.30;99.90;;;;;;4968383;28;20489;-51
2021/12/25 12:45:23;;;;;;;9.40;3.57;;;1.40;99.90;;;;;;4968834;28;20669;-51
2021/12/25 12:48:15;;;;;;;5.93;4.30;;;1.20;99.90;;;;;;4966001;28;20548;-51
2021/12/25 12:50:44;;;;;;;2.60;2.00;;;1.00;99.90;;;;;;4952737;28;20462;-51
2021/12/25 12:53:12;;;;;;;2.20;2.00;;;0.90;99.90;;;;;;4965522;28;20528;-51
2021/12/25 12:55:41;;;;;;;4.53;4.10;;;0.50;99.90;;;;;;4966358;28;20592;-51
2021/12/25 12:58:11;;;;;;;4.63;3.90;;;0.10;99.90;;;;;;4967144;28;20485;-51
2021/12/25 13:00:39;;;;;;;8.47;5.33;;;-0.20;99.90;;;;;;4966226;28;20831;-50
2021/12/25 13:03:06;;;;;;;9.17;6.90;;;0.00;99.90;;;;;;4964578;28;20516;-51
2021/12/25 13:05:37;;;;;;;6.40;4.67;;;0.50;99.90;;;;;;4966646;28;20824;-51
2021/12/25 13:08:12;;;;;;;3.33;3.10;;;0.80;99.90;;;;;;4968100;28;20916;-51
2021/12/25 13:10:44;;;;;;;3.13;2.43;;;0.20;99.90;;;;;;4968596;28;20511;-52
2021/12/25 13:13:15;;;;;;;4.37;2.50;;;0.10;99.90;;;;;;4962992;28;20509;-51
2021/12/25 13:15:44;;;;;;;4.00;2.00;;;0.10;99.90;;;;;;4963093;28;20497;-51
2021/12/25 13:18:12;;;;;;;3.17;2.27;;;0.00;99.90;;;;;;4967650;28;20458;-51
2021/12/25 13:20:43;;;;;;;5.13;3.33;;;-0.20;96.00;;;;;;4965512;28;20544;-51
2021/12/25 13:23:13;;;;;;;5.63;3.07;;;-0.60;97.80;;;;;;4963559;28;20583;-51
2021/12/25 13:25:46;;;;;;;7.03;2.47;;;-0.50;92.20;;;;;;4965080;28;20540;-51
2021/12/25 13:28:12;;;;;;;3.83;2.17;;;-0.60;90.20;;;;;;4966253;28;20475;-52
2021/12/25 13:30:42;;;;;;;4.00;2.20;;;-0.60;75.40;;;;;;4967984;28;20489;-51
2021/12/25 13:33:12;;;;;;;4.70;3.20;;;-0.50;99.90;;;;;;4966140;28;20478;-51
2021/12/25 13:35:39;;;;;;;5.07;2.80;;;-0.60;94.90;;;;;;4967386;28;20501;-51
2021/12/25 13:38:05;;;;;;;3.80;3.27;;;-0.70;98.10;;;;;;4963766;28;20489;-57
2021/12/25 13:40:34;;;;;;;3.03;2.40;;;-0.60;96.80;;;;;;4964710;28;20498;-57
2021/12/25 13:43:06;;;;;;;3.93;2.60;;;-0.40;98.00;;;;;;4970680;28;20921;-56
2021/12/25 13:45:33;;;;;;;4.33;2.70;;;-0.10;93.20;;;;;;4964940;28;20474;-56
2021/12/25 13:48:00;;;;;;;2.43;2.13;;;0.10;99.90;;;;;;4965712;28;20476;-57
2021/12/25 13:50:27;;;;;;;3.60;3.00;;;0.00;99.90;;;;;;4964991;28;20501;-56